sensor_id;sensor_type;location;lat;lon;timestamp;pressure;altitude;pressure_sealevel;temperature;humidity
65666;BME280;52365;47.464;18.976;2024-01-16T00:00:20;98618.00;;;2.89;56.56
65666;BME280;52365;47.464;18.976;2024-01-16T00:00:40;98625.75;;;2.96;56.48
65666;BME280;52365;47.464;18.976;2024-01-16T00:01:01;98617.12;;;2.92;56.37
65666;BME280;52365;47.464;18.976;2024-01-16T00:01:17;98629.34;;;3.02;56.35
65666;BME280;52365;47.464;18.976;2024-01-16T00:01:34;98619.16;;;3.00;56.23
65666;BME280;52365;47.464;18.976;2024-01-16T00:01:55;98628.19;;;3.03;56.12
65666;BME280;52365;47.464;18.976;2024-01-16T00:02:16;98622.22;;;3.12;55.95
65666;BME280;52365;47.464;18.976;2024-01-16T00:02:37;98625.00;;;3.08;55.75
65666;BME280;52365;47.464;18.976;2024-01-16T00:02:53;98628.06;;;3.07;55.82
65666;BME280;52365;47.464;18.976;2024-01-16T00:03:14;98621.37;;;3.02;55.83
65666;BME280;52365;47.464;18.976;2024-01-16T00:03:36;98625.12;;;2.92;56.05
65666;BME280;52365;47.464;18.976;2024-01-16T00:03:57;98620.09;;;2.94;56.19
65666;BME280;52365;47.464;18.976;2024-01-16T00:04:18;98624.59;;;2.71;56.62
65666;BME280;52365;47.464;18.976;2024-01-16T00:04:39;98626.94;;;2.82;56.67
65666;BME280;52365;47.464;18.976;2024-01-16T00:05:01;98627.78;;;2.92;56.53
65666;BME280;52365;47.464;18.976;2024-01-16T00:05:22;98627.34;;;2.81;56.66
65666;BME280;52365;47.464;18.976;2024-01-16T00:05:43;98621.94;;;2.71;56.97
65666;BME280;52365;47.464;18.976;2024-01-16T00:06:04;98624.59;;;2.84;56.86
65666;BME280;52365;47.464;18.976;2024-01-16T00:06:25;98623.94;;;2.93;56.61
65666;BME280;52365;47.464;18.976;2024-01-16T00:06:46;98629.69;;;2.91;56.47
65666;BME280;52365;47.464;18.976;2024-01-16T00:07:07;98624.69;;;2.93;56.49
65666;BME280;52365;47.464;18.976;2024-01-16T00:07:28;98632.75;;;3.02;56.26
65666;BME280;52365;47.464;18.976;2024-01-16T00:07:48;98637.56;;;3.08;56.12
65666;BME280;52365;47.464;18.976;2024-01-16T00:08:09;98629.69;;;3.04;56.02
65666;BME280;52365;47.464;18.976;2024-01-16T00:08:30;98634.69;;;3.02;56.02
65666;BME280;52365;47.464;18.976;2024-01-16T00:08:51;98630.00;;;2.93;56.14
65666;BME280;52365;47.464;18.976;2024-01-16T00:09:12;98632.13;;;2.98;56.17
65666;BME280;52365;47.464;18.976;2024-01-16T00:09:34;98629.91;;;2.97;56.17
65666;BME280;52365;47.464;18.976;2024-01-16T00:09:50;98632.88;;;2.99;56.10
65666;BME280;52365;47.464;18.976;2024-01-16T00:10:13;98639.16;;;3.05;56.13
65666;BME280;52365;47.464;18.976;2024-01-16T00:10:34;98635.38;;;3.15;56.00
65666;BME280;52365;47.464;18.976;2024-01-16T00:10:55;98631.13;;;3.18;55.76
65666;BME280;52365;47.464;18.976;2024-01-16T00:11:11;98638.13;;;3.24;55.60
65666;BME280;52365;47.464;18.976;2024-01-16T00:11:32;98629.91;;;3.32;55.39
65666;BME280;52365;47.464;18.976;2024-01-16T00:11:53;98640.91;;;3.34;55.10
65666;BME280;52365;47.464;18.976;2024-01-16T00:12:09;98636.97;;;3.25;55.16
65666;BME280;52365;47.464;18.976;2024-01-16T00:12:30;98634.31;;;3.25;55.22
65666;BME280;52365;47.464;18.976;2024-01-16T00:12:50;98640.94;;;3.21;55.29
65666;BME280;52365;47.464;18.976;2024-01-16T00:13:12;98641.94;;;3.36;55.22
65666;BME280;52365;47.464;18.976;2024-01-16T00:13:33;98643.41;;;3.37;54.91
65666;BME280;52365;47.464;18.976;2024-01-16T00:13:49;98641.97;;;3.23;55.21
65666;BME280;52365;47.464;18.976;2024-01-16T00:14:10;98644.41;;;3.31;55.27
65666;BME280;52365;47.464;18.976;2024-01-16T00:14:35;98643.56;;;3.34;55.10
65666;BME280;52365;47.464;18.976;2024-01-16T00:14:57;98637.31;;;3.15;55.39
65666;BME280;52365;47.464;18.976;2024-01-16T00:15:13;98641.34;;;3.19;55.50
65666;BME280;52365;47.464;18.976;2024-01-16T00:15:34;98640.72;;;3.15;55.55
65666;BME280;52365;47.464;18.976;2024-01-16T00:15:49;98638.28;;;3.21;55.49
65666;BME280;52365;47.464;18.976;2024-01-16T00:16:10;98644.44;;;3.18;55.49
65666;BME280;52365;47.464;18.976;2024-01-16T00:16:26;98641.12;;;3.26;55.45
65666;BME280;52365;47.464;18.976;2024-01-16T00:16:47;98645.81;;;3.22;55.37
65666;BME280;52365;47.464;18.976;2024-01-16T00:17:09;98646.66;;;3.19;55.44
65666;BME280;52365;47.464;18.976;2024-01-16T00:17:30;98645.41;;;3.11;55.51
65666;BME280;52365;47.464;18.976;2024-01-16T00:17:46;98647.13;;;3.05;55.79
65666;BME280;52365;47.464;18.976;2024-01-16T00:18:02;98649.06;;;3.05;55.89
65666;BME280;52365;47.464;18.976;2024-01-16T00:18:23;98645.75;;;3.00;56.03
65666;BME280;52365;47.464;18.976;2024-01-16T00:18:44;98644.59;;;3.01;56.04
65666;BME280;52365;47.464;18.976;2024-01-16T00:19:04;98650.09;;;3.07;56.12
65666;BME280;52365;47.464;18.976;2024-01-16T00:19:20;98654.03;;;3.15;55.93
65666;BME280;52365;47.464;18.976;2024-01-16T00:19:41;98657.31;;;3.19;55.72
65666;BME280;52365;47.464;18.976;2024-01-16T00:20:02;98651.59;;;3.08;55.75
65666;BME280;52365;47.464;18.976;2024-01-16T00:20:25;98655.75;;;3.09;55.87
65666;BME280;52365;47.464;18.976;2024-01-16T00:20:46;98665.66;;;3.09;55.90
65666;BME280;52365;47.464;18.976;2024-01-16T00:21:07;98660.41;;;3.18;55.78
65666;BME280;52365;47.464;18.976;2024-01-16T00:21:28;98658.59;;;3.15;55.68
65666;BME280;52365;47.464;18.976;2024-01-16T00:21:49;98654.28;;;3.08;55.80
65666;BME280;52365;47.464;18.976;2024-01-16T00:22:10;98659.25;;;3.06;55.95
65666;BME280;52365;47.464;18.976;2024-01-16T00:22:31;98658.22;;;3.03;56.10
65666;BME280;52365;47.464;18.976;2024-01-16T00:22:52;98662.56;;;3.10;56.08
65666;BME280;52365;47.464;18.976;2024-01-16T00:23:13;98662.44;;;3.14;56.04
65666;BME280;52365;47.464;18.976;2024-01-16T00:23:29;98661.72;;;3.13;56.01
65666;BME280;52365;47.464;18.976;2024-01-16T00:23:52;98655.41;;;3.07;56.07
65666;BME280;52365;47.464;18.976;2024-01-16T00:24:08;98657.78;;;3.05;56.20
65666;BME280;52365;47.464;18.976;2024-01-16T00:24:29;98660.03;;;2.94;56.47
65666;BME280;52365;47.464;18.976;2024-01-16T00:24:50;98664.03;;;3.11;56.50
65666;BME280;52365;47.464;18.976;2024-01-16T00:25:11;98663.09;;;3.18;56.16
65666;BME280;52365;47.464;18.976;2024-01-16T00:25:32;98666.03;;;3.33;55.92
65666;BME280;52365;47.464;18.976;2024-01-16T00:25:48;98666.34;;;3.35;55.65
65666;BME280;52365;47.464;18.976;2024-01-16T00:26:19;98665.16;;;3.36;55.54
65666;BME280;52365;47.464;18.976;2024-01-16T00:26:40;98659.19;;;3.44;55.44
65666;BME280;52365;47.464;18.976;2024-01-16T00:27:01;98660.84;;;3.51;55.20
65666;BME280;52365;47.464;18.976;2024-01-16T00:27:22;98660.63;;;3.58;54.93
65666;BME280;52365;47.464;18.976;2024-01-16T00:27:43;98658.81;;;3.55;54.94
65666;BME280;52365;47.464;18.976;2024-01-16T00:28:04;98663.31;;;3.45;55.09
65666;BME280;52365;47.464;18.976;2024-01-16T00:28:25;98663.50;;;3.51;55.05
65666;BME280;52365;47.464;18.976;2024-01-16T00:28:46;98664.19;;;3.42;55.08
65666;BME280;52365;47.464;18.976;2024-01-16T00:29:07;98661.25;;;3.27;55.44
65666;BME280;52365;47.464;18.976;2024-01-16T00:29:29;98661.88;;;3.32;55.64
65666;BME280;52365;47.464;18.976;2024-01-16T00:29:51;98662.81;;;3.38;55.62
65666;BME280;52365;47.464;18.976;2024-01-16T00:30:12;98663.31;;;3.45;55.38
65666;BME280;52365;47.464;18.976;2024-01-16T00:30:29;98663.09;;;3.52;55.27
65666;BME280;52365;47.464;18.976;2024-01-16T00:30:50;98667.78;;;3.48;55.16
65666;BME280;52365;47.464;18.976;2024-01-16T00:31:11;98662.50;;;3.36;55.38
65666;BME280;52365;47.464;18.976;2024-01-16T00:31:32;98655.06;;;3.31;55.56
65666;BME280;52365;47.464;18.976;2024-01-16T00:31:53;98664.53;;;3.32;55.74
65666;BME280;52365;47.464;18.976;2024-01-16T00:32:14;98661.97;;;3.28;55.91
65666;BME280;52365;47.464;18.976;2024-01-16T00:32:42;98669.63;;;3.39;55.81
65666;BME280;52365;47.464;18.976;2024-01-16T00:33:03;98664.50;;;3.44;55.55
65666;BME280;52365;47.464;18.976;2024-01-16T00:33:24;98669.28;;;3.49;55.43
65666;BME280;52365;47.464;18.976;2024-01-16T00:33:42;98674.50;;;3.53;55.33
65666;BME280;52365;47.464;18.976;2024-01-16T00:34:03;98669.78;;;3.57;55.27
65666;BME280;52365;47.464;18.976;2024-01-16T00:34:24;98672.13;;;3.55;55.24
65666;BME280;52365;47.464;18.976;2024-01-16T00:34:45;98668.69;;;3.67;55.07
65666;BME280;52365;47.464;18.976;2024-01-16T00:35:01;98668.13;;;3.72;54.80
65666;BME280;52365;47.464;18.976;2024-01-16T00:35:22;98664.53;;;3.66;54.70
65666;BME280;52365;47.464;18.976;2024-01-16T00:35:43;98674.00;;;3.67;54.79
65666;BME280;52365;47.464;18.976;2024-01-16T00:36:04;98672.41;;;3.70;54.83
65666;BME280;52365;47.464;18.976;2024-01-16T00:36:25;98671.16;;;3.62;55.07
65666;BME280;52365;47.464;18.976;2024-01-16T00:36:46;98676.59;;;3.58;55.12
65666;BME280;52365;47.464;18.976;2024-01-16T00:37:02;98674.34;;;3.69;54.98
65666;BME280;52365;47.464;18.976;2024-01-16T00:37:23;98673.78;;;3.74;54.81
65666;BME280;52365;47.464;18.976;2024-01-16T00:37:44;98671.19;;;3.84;54.58
65666;BME280;52365;47.464;18.976;2024-01-16T00:38:05;98671.34;;;3.67;54.67
65666;BME280;52365;47.464;18.976;2024-01-16T00:38:26;98676.38;;;3.65;54.79
65666;BME280;52365;47.464;18.976;2024-01-16T00:38:47;98671.66;;;3.69;54.82
65666;BME280;52365;47.464;18.976;2024-01-16T00:39:08;98673.38;;;3.63;54.83
65666;BME280;52365;47.464;18.976;2024-01-16T00:39:29;98673.63;;;3.56;54.95
65666;BME280;52365;47.464;18.976;2024-01-16T00:39:50;98673.88;;;3.49;55.34
65666;BME280;52365;47.464;18.976;2024-01-16T00:40:11;98677.47;;;3.55;55.28
65666;BME280;52365;47.464;18.976;2024-01-16T00:40:32;98681.31;;;3.54;55.23
65666;BME280;52365;47.464;18.976;2024-01-16T00:40:53;98677.66;;;3.61;55.19
65666;BME280;52365;47.464;18.976;2024-01-16T00:41:15;98684.03;;;3.63;55.01
65666;BME280;52365;47.464;18.976;2024-01-16T00:41:36;98675.97;;;3.54;55.08
65666;BME280;52365;47.464;18.976;2024-01-16T00:41:57;98678.19;;;3.56;55.25
65666;BME280;52365;47.464;18.976;2024-01-16T00:42:18;98678.34;;;3.52;55.10
65666;BME280;52365;47.464;18.976;2024-01-16T00:42:39;98672.56;;;3.53;55.38
65666;BME280;52365;47.464;18.976;2024-01-16T00:43:00;98680.13;;;3.55;55.06
65666;BME280;52365;47.464;18.976;2024-01-16T00:43:21;98677.91;;;3.53;55.16
65666;BME280;52365;47.464;18.976;2024-01-16T00:43:37;98684.72;;;3.54;55.12
65666;BME280;52365;47.464;18.976;2024-01-16T00:43:52;98683.97;;;3.54;55.14
65666;BME280;52365;47.464;18.976;2024-01-16T00:44:14;98682.66;;;3.59;55.08
65666;BME280;52365;47.464;18.976;2024-01-16T00:44:35;98681.06;;;3.61;55.03
65666;BME280;52365;47.464;18.976;2024-01-16T00:44:56;98685.78;;;3.57;54.97
65666;BME280;52365;47.464;18.976;2024-01-16T00:45:17;98683.66;;;3.52;55.22
65666;BME280;52365;47.464;18.976;2024-01-16T00:45:32;98686.62;;;3.54;55.36
65666;BME280;52365;47.464;18.976;2024-01-16T00:45:54;98690.53;;;3.62;55.31
65666;BME280;52365;47.464;18.976;2024-01-16T00:46:10;98691.50;;;3.56;55.17
65666;BME280;52365;47.464;18.976;2024-01-16T00:46:26;98689.41;;;3.50;55.25
65666;BME280;52365;47.464;18.976;2024-01-16T00:46:47;98693.44;;;3.55;55.26
65666;BME280;52365;47.464;18.976;2024-01-16T00:47:08;98680.25;;;3.51;55.25
65666;BME280;52365;47.464;18.976;2024-01-16T00:47:28;98686.41;;;3.61;55.16
65666;BME280;52365;47.464;18.976;2024-01-16T00:47:49;98688.75;;;3.59;55.08
65666;BME280;52365;47.464;18.976;2024-01-16T00:48:10;98688.94;;;3.65;55.01
65666;BME280;52365;47.464;18.976;2024-01-16T00:48:34;98685.97;;;3.63;54.96
65666;BME280;52365;47.464;18.976;2024-01-16T00:48:55;98695.44;;;3.64;54.96
65666;BME280;52365;47.464;18.976;2024-01-16T00:49:16;98690.31;;;3.69;54.87
65666;BME280;52365;47.464;18.976;2024-01-16T00:49:32;98694.41;;;3.61;54.93
65666;BME280;52365;47.464;18.976;2024-01-16T00:49:53;98693.50;;;3.64;54.94
65666;BME280;52365;47.464;18.976;2024-01-16T00:50:14;98695.31;;;3.67;54.86
65666;BME280;52365;47.464;18.976;2024-01-16T00:50:35;98699.50;;;3.56;55.00
65666;BME280;52365;47.464;18.976;2024-01-16T00:50:56;98691.22;;;3.53;55.17
65666;BME280;52365;47.464;18.976;2024-01-16T00:51:17;98699.16;;;3.66;55.12
65666;BME280;52365;47.464;18.976;2024-01-16T00:51:38;98694.91;;;3.69;54.80
65666;BME280;52365;47.464;18.976;2024-01-16T00:51:59;98691.47;;;3.68;54.87
65666;BME280;52365;47.464;18.976;2024-01-16T00:52:19;98698.66;;;3.59;54.77
65666;BME280;52365;47.464;18.976;2024-01-16T00:52:40;98707.00;;;3.48;55.11
65666;BME280;52365;47.464;18.976;2024-01-16T00:53:01;98696.81;;;3.34;55.38
65666;BME280;52365;47.464;18.976;2024-01-16T00:53:22;98701.19;;;3.27;55.69
65666;BME280;52365;47.464;18.976;2024-01-16T00:53:41;98696.69;;;3.37;55.57
65666;BME280;52365;47.464;18.976;2024-01-16T00:54:03;98705.13;;;3.36;55.59
65666;BME280;52365;47.464;18.976;2024-01-16T00:54:19;98708.72;;;3.42;55.49
65666;BME280;52365;47.464;18.976;2024-01-16T00:54:34;98706.03;;;3.42;55.48
65666;BME280;52365;47.464;18.976;2024-01-16T00:54:55;98704.13;;;3.42;55.45
65666;BME280;52365;47.464;18.976;2024-01-16T00:55:16;98702.94;;;3.56;55.31
65666;BME280;52365;47.464;18.976;2024-01-16T00:55:32;98707.09;;;3.57;55.20
65666;BME280;52365;47.464;18.976;2024-01-16T00:55:54;98708.75;;;3.64;55.05
65666;BME280;52365;47.464;18.976;2024-01-16T00:56:15;98707.06;;;3.70;54.94
65666;BME280;52365;47.464;18.976;2024-01-16T00:56:36;98712.16;;;3.64;54.82
65666;BME280;52365;47.464;18.976;2024-01-16T00:56:51;98709.75;;;3.57;55.03
65666;BME280;52365;47.464;18.976;2024-01-16T00:57:11;98707.50;;;3.56;55.07
65666;BME280;52365;47.464;18.976;2024-01-16T00:57:32;98702.09;;;3.46;55.28
65666;BME280;52365;47.464;18.976;2024-01-16T00:57:53;98706.37;;;3.44;55.29
65666;BME280;52365;47.464;18.976;2024-01-16T00:58:14;98703.63;;;3.35;55.64
65666;BME280;52365;47.464;18.976;2024-01-16T00:58:36;98706.41;;;3.31;55.71
65666;BME280;52365;47.464;18.976;2024-01-16T00:58:56;98710.75;;;3.38;55.66
65666;BME280;52365;47.464;18.976;2024-01-16T00:59:17;98713.22;;;3.19;55.78
65666;BME280;52365;47.464;18.976;2024-01-16T00:59:38;98713.13;;;3.23;55.94
65666;BME280;52365;47.464;18.976;2024-01-16T00:59:59;98706.94;;;3.39;55.80
65666;BME280;52365;47.464;18.976;2024-01-16T01:00:15;98713.81;;;3.49;55.54
65666;BME280;52365;47.464;18.976;2024-01-16T01:00:36;98710.56;;;3.67;55.26
65666;BME280;52365;47.464;18.976;2024-01-16T01:00:53;98713.75;;;3.74;54.83
65666;BME280;52365;47.464;18.976;2024-01-16T01:01:13;98717.50;;;3.64;54.72
65666;BME280;52365;47.464;18.976;2024-01-16T01:01:37;98708.66;;;3.67;54.86
65666;BME280;52365;47.464;18.976;2024-01-16T01:01:58;98708.66;;;3.67;54.65
65666;BME280;52365;47.464;18.976;2024-01-16T01:02:19;98706.78;;;3.77;54.47
65666;BME280;52365;47.464;18.976;2024-01-16T01:02:39;98711.00;;;3.65;54.45
65666;BME280;52365;47.464;18.976;2024-01-16T01:03:01;98713.16;;;3.58;54.60
65666;BME280;52365;47.464;18.976;2024-01-16T01:03:22;98717.19;;;3.62;54.73
65666;BME280;52365;47.464;18.976;2024-01-16T01:03:42;98713.34;;;3.63;54.56
65666;BME280;52365;47.464;18.976;2024-01-16T01:04:03;98718.16;;;3.56;54.56
65666;BME280;52365;47.464;18.976;2024-01-16T01:04:25;98715.84;;;3.45;54.80
65666;BME280;52365;47.464;18.976;2024-01-16T01:04:45;98721.19;;;3.45;54.92
65666;BME280;52365;47.464;18.976;2024-01-16T01:05:01;98715.53;;;3.43;54.96
65666;BME280;52365;47.464;18.976;2024-01-16T01:05:18;98716.06;;;3.38;55.12
65666;BME280;52365;47.464;18.976;2024-01-16T01:05:39;98711.91;;;3.37;55.13
65666;BME280;52365;47.464;18.976;2024-01-16T01:05:55;98715.47;;;3.34;55.28
65666;BME280;52365;47.464;18.976;2024-01-16T01:06:16;98721.91;;;3.45;55.18
65666;BME280;52365;47.464;18.976;2024-01-16T01:06:37;98718.44;;;3.36;55.13
65666;BME280;52365;47.464;18.976;2024-01-16T01:06:58;98721.19;;;3.45;55.16
65666;BME280;52365;47.464;18.976;2024-01-16T01:07:19;98719.28;;;3.33;55.09
65666;BME280;52365;47.464;18.976;2024-01-16T01:07:40;98721.19;;;3.32;55.20
65666;BME280;52365;47.464;18.976;2024-01-16T01:08:01;98722.38;;;3.31;55.34
65666;BME280;52365;47.464;18.976;2024-01-16T01:08:17;98725.88;;;3.41;55.21
65666;BME280;52365;47.464;18.976;2024-01-16T01:08:33;98715.22;;;3.41;55.09
65666;BME280;52365;47.464;18.976;2024-01-16T01:08:54;98726.22;;;3.30;55.24
65666;BME280;52365;47.464;18.976;2024-01-16T01:09:16;98716.62;;;3.33;55.33
65666;BME280;52365;47.464;18.976;2024-01-16T01:09:32;98724.22;;;3.21;55.50
65666;BME280;52365;47.464;18.976;2024-01-16T01:09:53;98726.88;;;3.21;55.63
65666;BME280;52365;47.464;18.976;2024-01-16T01:10:14;98722.81;;;3.30;55.63
65666;BME280;52365;47.464;18.976;2024-01-16T01:10:30;98724.69;;;3.42;55.41
65666;BME280;52365;47.464;18.976;2024-01-16T01:10:51;98725.47;;;3.30;55.25
65666;BME280;52365;47.464;18.976;2024-01-16T01:11:07;98732.41;;;3.27;55.37
65666;BME280;52365;47.464;18.976;2024-01-16T01:11:28;98733.78;;;3.32;55.35
65666;BME280;52365;47.464;18.976;2024-01-16T01:11:48;98734.09;;;3.34;55.23
65666;BME280;52365;47.464;18.976;2024-01-16T01:12:10;98721.97;;;3.20;55.37
65666;BME280;52365;47.464;18.976;2024-01-16T01:12:31;98731.34;;;3.12;55.80
65666;BME280;52365;47.464;18.976;2024-01-16T01:12:51;98729.94;;;3.20;55.75
65666;BME280;52365;47.464;18.976;2024-01-16T01:13:14;98739.84;;;3.19;55.70
65666;BME280;52365;47.464;18.976;2024-01-16T01:13:34;98733.25;;;3.24;55.67
65666;BME280;52365;47.464;18.976;2024-01-16T01:13:55;98735.59;;;3.22;55.65
65666;BME280;52365;47.464;18.976;2024-01-16T01:14:11;98729.34;;;3.03;56.19
65666;BME280;52365;47.464;18.976;2024-01-16T01:14:32;98738.56;;;3.11;56.19
65666;BME280;52365;47.464;18.976;2024-01-16T01:14:53;98728.47;;;3.06;56.11
65666;BME280;52365;47.464;18.976;2024-01-16T01:15:14;98737.94;;;3.20;55.86
65666;BME280;52365;47.464;18.976;2024-01-16T01:15:35;98736.13;;;3.30;55.82
65666;BME280;52365;47.464;18.976;2024-01-16T01:15:52;98743.03;;;3.40;55.36
65666;BME280;52365;47.464;18.976;2024-01-16T01:16:08;98731.84;;;3.45;55.19
65666;BME280;52365;47.464;18.976;2024-01-16T01:16:29;98733.13;;;3.40;55.13
65666;BME280;52365;47.464;18.976;2024-01-16T01:16:53;98734.84;;;3.34;55.28
65666;BME280;52365;47.464;18.976;2024-01-16T01:17:14;98728.56;;;3.28;55.33
65666;BME280;52365;47.464;18.976;2024-01-16T01:17:30;98737.81;;;3.23;55.45
65666;BME280;52365;47.464;18.976;2024-01-16T01:17:51;98736.34;;;3.22;55.78
65666;BME280;52365;47.464;18.976;2024-01-16T01:18:12;98734.75;;;3.25;55.47
65666;BME280;52365;47.464;18.976;2024-01-16T01:18:33;98735.28;;;3.20;55.51
65666;BME280;52365;47.464;18.976;2024-01-16T01:18:55;98738.16;;;3.25;55.47
65666;BME280;52365;47.464;18.976;2024-01-16T01:19:16;98737.81;;;3.36;55.28
65666;BME280;52365;47.464;18.976;2024-01-16T01:19:32;98739.22;;;3.28;55.16
65666;BME280;52365;47.464;18.976;2024-01-16T01:19:48;98741.13;;;3.27;55.18
65666;BME280;52365;47.464;18.976;2024-01-16T01:20:09;98746.53;;;3.37;55.17
65666;BME280;52365;47.464;18.976;2024-01-16T01:20:32;98745.59;;;3.43;54.91
65666;BME280;52365;47.464;18.976;2024-01-16T01:20:53;98740.31;;;3.65;54.67
65666;BME280;52365;47.464;18.976;2024-01-16T01:21:14;98746.38;;;3.66;54.19
65666;BME280;52365;47.464;18.976;2024-01-16T01:21:35;98741.81;;;3.53;54.52
65666;BME280;52365;47.464;18.976;2024-01-16T01:21:51;98737.13;;;3.58;54.52
65666;BME280;52365;47.464;18.976;2024-01-16T01:22:12;98739.78;;;3.58;54.47
65666;BME280;52365;47.464;18.976;2024-01-16T01:22:33;98740.25;;;3.56;54.51
65666;BME280;52365;47.464;18.976;2024-01-16T01:22:54;98748.56;;;3.45;54.66
65666;BME280;52365;47.464;18.976;2024-01-16T01:23:15;98745.41;;;3.25;54.85
65666;BME280;52365;47.464;18.976;2024-01-16T01:23:36;98742.50;;;3.32;55.01
65666;BME280;52365;47.464;18.976;2024-01-16T01:23:57;98740.91;;;3.47;54.94
65666;BME280;52365;47.464;18.976;2024-01-16T01:24:17;98752.28;;;3.48;54.72
65666;BME280;52365;47.464;18.976;2024-01-16T01:24:38;98752.28;;;3.48;54.66
65666;BME280;52365;47.464;18.976;2024-01-16T01:24:54;98752.41;;;3.44;54.69
65666;BME280;52365;47.464;18.976;2024-01-16T01:25:15;98747.69;;;3.61;54.62
65666;BME280;52365;47.464;18.976;2024-01-16T01:25:36;98750.87;;;3.69;54.17
65666;BME280;52365;47.464;18.976;2024-01-16T01:25:57;98748.38;;;3.74;53.97
65666;BME280;52365;47.464;18.976;2024-01-16T01:26:13;98755.16;;;3.53;54.31
65666;BME280;52365;47.464;18.976;2024-01-16T01:26:34;98739.12;;;3.66;54.25
65666;BME280;52365;47.464;18.976;2024-01-16T01:26:56;98752.84;;;3.77;53.91
65666;BME280;52365;47.464;18.976;2024-01-16T01:27:17;98747.41;;;3.81;53.64
65666;BME280;52365;47.464;18.976;2024-01-16T01:27:38;98740.97;;;3.91;53.41
65666;BME280;52365;47.464;18.976;2024-01-16T01:27:59;98747.25;;;3.97;53.21
65666;BME280;52365;47.464;18.976;2024-01-16T01:28:16;98741.47;;;3.99;52.93
65666;BME280;52365;47.464;18.976;2024-01-16T01:28:36;98749.16;;;3.97;52.96
65666;BME280;52365;47.464;18.976;2024-01-16T01:29:00;98749.28;;;3.93;52.93
65666;BME280;52365;47.464;18.976;2024-01-16T01:29:21;98753.38;;;4.07;52.85
65666;BME280;52365;47.464;18.976;2024-01-16T01:29:42;98745.81;;;4.06;52.73
65666;BME280;52365;47.464;18.976;2024-01-16T01:30:03;98749.00;;;4.13;52.59
65666;BME280;52365;47.464;18.976;2024-01-16T01:30:24;98743.66;;;4.13;52.43
65666;BME280;52365;47.464;18.976;2024-01-16T01:30:45;98747.19;;;4.10;52.33
65666;BME280;52365;47.464;18.976;2024-01-16T01:31:10;98743.03;;;4.09;52.35
65666;BME280;52365;47.464;18.976;2024-01-16T01:31:31;98750.03;;;3.94;52.53
65666;BME280;52365;47.464;18.976;2024-01-16T01:31:52;98748.53;;;3.93;52.71
65666;BME280;52365;47.464;18.976;2024-01-16T01:32:08;98751.75;;;3.88;52.79
65666;BME280;52365;47.464;18.976;2024-01-16T01:32:24;98749.34;;;3.68;53.05
65666;BME280;52365;47.464;18.976;2024-01-16T01:32:45;98746.50;;;3.62;53.52
65666;BME280;52365;47.464;18.976;2024-01-16T01:33:01;98750.72;;;3.72;53.45
65666;BME280;52365;47.464;18.976;2024-01-16T01:33:22;98751.63;;;3.57;53.50
65666;BME280;52365;47.464;18.976;2024-01-16T01:33:41;98752.41;;;3.32;54.09
65666;BME280;52365;47.464;18.976;2024-01-16T01:34:03;98748.69;;;3.29;54.20
65666;BME280;52365;47.464;18.976;2024-01-16T01:34:25;98747.62;;;3.26;54.48
65666;BME280;52365;47.464;18.976;2024-01-16T01:34:46;98753.59;;;3.31;54.46
65666;BME280;52365;47.464;18.976;2024-01-16T01:35:07;98746.31;;;3.44;54.39
65666;BME280;52365;47.464;18.976;2024-01-16T01:35:28;98745.22;;;3.54;54.03
65666;BME280;52365;47.464;18.976;2024-01-16T01:35:49;98750.97;;;3.65;53.71
65666;BME280;52365;47.464;18.976;2024-01-16T01:36:05;98752.56;;;3.63;53.69
65666;BME280;52365;47.464;18.976;2024-01-16T01:36:26;98750.72;;;3.72;53.57
65666;BME280;52365;47.464;18.976;2024-01-16T01:36:47;98750.81;;;3.82;53.24
65666;BME280;52365;47.464;18.976;2024-01-16T01:37:08;98746.34;;;3.78;53.19
65666;BME280;52365;47.464;18.976;2024-01-16T01:37:29;98752.59;;;3.85;53.11
65666;BME280;52365;47.464;18.976;2024-01-16T01:37:45;98756.38;;;3.74;53.31
65666;BME280;52365;47.464;18.976;2024-01-16T01:38:06;98751.25;;;3.80;53.17
65666;BME280;52365;47.464;18.976;2024-01-16T01:38:29;98758.72;;;3.72;53.23
65666;BME280;52365;47.464;18.976;2024-01-16T01:38:50;98751.34;;;3.76;53.25
65666;BME280;52365;47.464;18.976;2024-01-16T01:39:11;98751.47;;;3.73;53.15
65666;BME280;52365;47.464;18.976;2024-01-16T01:39:32;98755.66;;;3.61;53.36
65666;BME280;52365;47.464;18.976;2024-01-16T01:39:48;98755.66;;;3.61;53.47
65666;BME280;52365;47.464;18.976;2024-01-16T01:40:09;98750.09;;;3.68;53.48
65666;BME280;52365;47.464;18.976;2024-01-16T01:40:30;98751.78;;;3.75;53.32
65666;BME280;52365;47.464;18.976;2024-01-16T01:40:51;98753.59;;;3.78;53.16
65666;BME280;52365;47.464;18.976;2024-01-16T01:41:12;98753.38;;;3.72;53.16
65666;BME280;52365;47.464;18.976;2024-01-16T01:41:33;98754.56;;;3.71;53.27
65666;BME280;52365;47.464;18.976;2024-01-16T01:41:49;98753.47;;;3.82;53.13
65666;BME280;52365;47.464;18.976;2024-01-16T01:42:09;98752.09;;;3.77;53.03
65666;BME280;52365;47.464;18.976;2024-01-16T01:42:30;98752.69;;;3.59;53.48
65666;BME280;52365;47.464;18.976;2024-01-16T01:42:51;98757.84;;;3.15;54.40
65666;BME280;52365;47.464;18.976;2024-01-16T01:43:20;98760.81;;;3.43;54.46
65666;BME280;52365;47.464;18.976;2024-01-16T01:43:41;98753.66;;;3.52;54.10
65666;BME280;52365;47.464;18.976;2024-01-16T01:44:03;98754.62;;;3.46;53.88
65666;BME280;52365;47.464;18.976;2024-01-16T01:44:18;98751.22;;;3.33;54.09
65666;BME280;52365;47.464;18.976;2024-01-16T01:44:39;98747.09;;;3.19;54.38
65666;BME280;52365;47.464;18.976;2024-01-16T01:44:55;98759.56;;;3.22;54.55
65666;BME280;52365;47.464;18.976;2024-01-16T01:45:16;98750.50;;;3.19;54.61
65666;BME280;52365;47.464;18.976;2024-01-16T01:45:37;98750.94;;;3.31;54.52
65666;BME280;52365;47.464;18.976;2024-01-16T01:46:32;98754.22;;;3.35;54.18
65666;BME280;52365;47.464;18.976;2024-01-16T01:46:54;98754.78;;;3.30;54.43
65666;BME280;52365;47.464;18.976;2024-01-16T01:47:16;98752.31;;;3.22;54.66
65666;BME280;52365;47.464;18.976;2024-01-16T01:47:39;98753.69;;;3.27;54.70
65666;BME280;52365;47.464;18.976;2024-01-16T01:48:00;98755.19;;;3.28;54.68